Station Historical Data
Daily Summary for March 18, 2012 Units:  English    Metric   Both
« Previous Day
Next Day »
Daily Weekly Monthly Yearly Custom
  High: Low: Average:
Temperature: 80.7 °F 60.7 °F 70.1 °F
Dew Point: 63.5 °F 50.4 °F 56.1 °F
Humidity: 83% 38% 63%
Wind Speed: 11.0mph 0.0mph 3mph
Wind Gust: 14.0mph - -
Wind- - SSE
Pressure: 30.20 in 30.06 in -
Precipitation: 0.00 in    
Historical Graphs
 
 
Tabular Data for March 18, 2012
Time Temperature Dew Point Pressure Wind Wind Speed Wind Gust Humidity Rainfall Rate (Hourly) Conditions
00:00 67.1 °F 58.9 °F 30.10 in East 2.0 mph 2.0 mph 75% 0.00 in
00:05 66.8 °F 59.0 °F 30.11 in East 1.0 mph 2.0 mph 76% 0.00 in
00:10 66.4 °F 59.0 °F 30.11 in Calm   1.0 mph 77% 0.00 in
00:16 66.2 °F 58.8 °F 30.11 in East 1.0 mph 2.0 mph 77% 0.00 in
00:20 66.2 °F 58.8 °F 30.11 in East 2.0 mph 3.0 mph 77% 0.00 in
00:26 66.5 °F 58.7 °F 30.11 in ESE 2.0 mph 3.0 mph 76% 0.00 in
00:31 66.0 °F 58.2 °F 30.11 in Calm   2.0 mph 76% 0.00 in
00:36 65.1 °F 58.1 °F 30.11 in Calm   1.0 mph 78% 0.00 in
00:41 64.7 °F 58.0 °F 30.11 in Calm   2.0 mph 79% 0.00 in
00:46 65.0 °F 58.3 °F 30.11 in East 1.0 mph 1.0 mph 79% 0.00 in
00:51 65.2 °F 58.2 °F 30.11 in Calm   1.0 mph 78% 0.00 in
00:56 65.0 °F 58.3 °F 30.11 in Calm     79% 0.00 in
01:01 64.8 °F 58.1 °F 30.11 in ESE 1.0 mph 1.0 mph 79% 0.00 in
01:06 64.7 °F 58.0 °F 30.11 in ESE 1.0 mph 1.0 mph 79% 0.00 in
01:11 64.5 °F 57.8 °F 30.11 in Calm     79% 0.00 in
01:16 64.5 °F 57.8 °F 30.11 in Calm     79% 0.00 in
01:21 64.3 °F 57.7 °F 30.11 in Calm     79% 0.00 in
01:26 64.1 °F 57.8 °F 30.11 in Calm   1.0 mph 80% 0.00 in
01:31 64.5 °F 58.2 °F 30.11 in SSE 1.0 mph 1.0 mph 80% 0.00 in
01:36 65.0 °F 58.0 °F 30.11 in SE 1.0 mph 2.0 mph 78% 0.00 in
01:41 65.2 °F 57.8 °F 30.10 in SSE 1.0 mph 3.0 mph 77% 0.00 in
01:46 65.4 °F 57.7 °F 30.11 in SE 2.0 mph 4.0 mph 76% 0.00 in
01:51 66.0 °F 57.5 °F 30.10 in SSE 2.0 mph 4.0 mph 74% 0.00 in
01:56 66.6 °F 57.3 °F 30.11 in SSE 3.0 mph 3.0 mph 72% 0.00 in
02:01 66.6 °F 57.3 °F 30.11 in SE 3.0 mph 3.0 mph 72% 0.00 in
02:06 66.4 °F 57.1 °F 30.11 in SSE 3.0 mph 3.0 mph 72% 0.00 in
02:11 66.2 °F 56.9 °F 30.11 in SSE 3.0 mph 3.0 mph 72% 0.00 in
02:16 66.4 °F 56.7 °F 30.11 in SE 2.0 mph 4.0 mph 71% 0.00 in
02:21 66.3 °F 56.6 °F 30.11 in SSE 3.0 mph 3.0 mph 71% 0.00 in
02:26 66.2 °F 56.5 °F 30.11 in SSE 2.0 mph 3.0 mph 71% 0.00 in
02:31 66.2 °F 56.5 °F 30.11 in SSE 2.0 mph 3.0 mph 71% 0.00 in
02:36 65.9 °F 56.6 °F 30.11 in South 1.0 mph 2.0 mph 72% 0.00 in
02:41 65.6 °F 56.3 °F 30.11 in South 2.0 mph 2.0 mph 72% 0.00 in
02:46 65.6 °F 56.3 °F 30.11 in SSE 2.0 mph 3.0 mph 72% 0.00 in
02:51 65.6 °F 56.3 °F 30.11 in South 2.0 mph 5.0 mph 72% 0.00 in
02:56 65.7 °F 56.4 °F 30.11 in SSE 2.0 mph 3.0 mph 72% 0.00 in
03:01 66.0 °F 56.3 °F 30.11 in South 2.0 mph 4.0 mph 71% 0.00 in
03:06 66.1 °F 56.4 °F 30.11 in SW 2.0 mph 3.0 mph 71% 0.00 in
03:11 66.0 °F 56.3 °F 30.11 in South 1.0 mph 3.0 mph 71% 0.00 in
03:16 65.8 °F 56.2 °F 30.11 in SSW 1.0 mph 3.0 mph 71% 0.00 in
03:21 65.9 °F 56.2 °F 30.11 in South 3.0 mph 3.0 mph 71% 0.00 in
03:26 66.1 °F 56.0 °F 30.10 in SSE 2.0 mph 4.0 mph 70% 0.00 in
03:31 66.0 °F 56.0 °F 30.11 in SSE 2.0 mph 3.0 mph 70% 0.00 in
03:36 66.0 °F 56.0 °F 30.11 in SSE 3.0 mph 4.0 mph 70% 0.00 in
03:42 66.0 °F 56.0 °F 30.11 in SSE 2.0 mph 4.0 mph 70% 0.00 in
03:47 65.9 °F 55.8 °F 30.10 in SSE 2.0 mph 4.0 mph 70% 0.00 in
03:52 65.4 °F 56.2 °F 30.10 in SE 2.0 mph 3.0 mph 72% 0.00 in
03:57 64.7 °F 55.9 °F 30.10 in SSE 2.0 mph 2.0 mph 73% 0.00 in
04:02 64.3 °F 55.8 °F 30.10 in SSE 1.0 mph 2.0 mph 74% 0.00 in
04:07 64.1 °F 56.0 °F 30.10 in SSE 1.0 mph 2.0 mph 75% 0.00 in
04:12 64.2 °F 56.1 °F 30.10 in SE 1.0 mph 1.0 mph 75% 0.00 in
04:17 64.1 °F 56.0 °F 30.10 in SE 1.0 mph 2.0 mph 75% 0.00 in
04:22 63.9 °F 56.2 °F 30.10 in SE 1.0 mph 1.0 mph 76% 0.00 in
04:27 63.7 °F 56.0 °F 30.10 in SE 1.0 mph 1.0 mph 76% 0.00 in
04:32 63.5 °F 55.8 °F 30.10 in SSE 1.0 mph 1.0 mph 76% 0.00 in
04:37 63.4 °F 56.1 °F 30.10 in SSE 1.0 mph 1.0 mph 77% 0.00 in
04:42 63.1 °F 55.8 °F 30.10 in SE 1.0 mph 1.0 mph 77% 0.00 in
04:47 62.7 °F 55.8 °F 30.09 in SSE 2.0 mph 2.0 mph 78% 0.00 in
04:52 62.8 °F 55.8 °F 30.09 in SSE 2.0 mph 3.0 mph 78% 0.00 in
04:57 63.0 °F 55.7 °F 30.09 in SSE 2.0 mph 2.0 mph 77% 0.00 in
05:02 63.1 °F 55.8 °F 30.09 in SSE 1.0 mph 2.0 mph 77% 0.00 in
05:07 62.9 °F 55.6 °F 30.09 in SE 2.0 mph 2.0 mph 77% 0.00 in
05:12 62.8 °F 55.5 °F 30.09 in SE 1.0 mph 2.0 mph 77% 0.00 in
05:17 62.6 °F 55.7 °F 30.09 in SSE 2.0 mph 2.0 mph 78% 0.00 in
05:22 62.4 °F 55.5 °F 30.09 in SSE 3.0 mph 3.0 mph 78% 0.00 in
05:27 62.2 °F 55.3 °F 30.09 in SSE 2.0 mph 3.0 mph 78% 0.00 in
05:32 61.8 °F 55.2 °F 30.10 in SSE 5.0 mph 6.0 mph 79% 0.00 in
05:37 61.7 °F 55.1 °F 30.10 in SSE 3.0 mph 5.0 mph 79% 0.00 in
05:42 62.0 °F 55.4 °F 30.10 in South 5.0 mph 5.0 mph 79% 0.00 in
05:47 61.9 °F 55.3 °F 30.10 in SSE 4.0 mph 5.0 mph 79% 0.00 in
05:52 61.8 °F 55.6 °F 30.10 in SSE 2.0 mph 3.0 mph 80% 0.00 in
05:57 61.7 °F 55.5 °F 30.10 in SSE 2.0 mph 4.0 mph 80% 0.00 in
06:02 61.8 °F 55.2 °F 30.10 in SSE 1.0 mph 2.0 mph 79% 0.00 in
06:07 62.1 °F 55.5 °F 30.11 in SE 1.0 mph 2.0 mph 79% 0.00 in
06:12 61.8 °F 55.2 °F 30.11 in SE 1.0 mph 1.0 mph 79% 0.00 in
06:17 61.4 °F 55.2 °F 30.11 in SSE 2.0 mph 2.0 mph 80% 0.00 in
06:22 61.2 °F 55.0 °F 30.11 in SE 2.0 mph 3.0 mph 80% 0.00 in
06:27 61.2 °F 55.3 °F 30.11 in SE 2.0 mph 3.0 mph 81% 0.00 in
06:32 61.4 °F 55.5 °F 30.11 in SE 2.0 mph 3.0 mph 81% 0.00 in
06:38 61.4 °F 55.2 °F 30.12 in SSE 3.0 mph 4.0 mph 80% 0.00 in
06:43 61.4 °F 55.2 °F 30.12 in SE 3.0 mph 4.0 mph 80% 0.00 in
06:48 61.6 °F 55.4 °F 30.12 in SE 2.0 mph 3.0 mph 80% 0.00 in
06:53 61.8 °F 55.6 °F 30.11 in SE 3.0 mph 5.0 mph 80% 0.00 in
06:58 62.0 °F 55.4 °F 30.12 in SSE 2.0 mph 3.0 mph 79% 0.00 in
07:03 61.9 °F 55.3 °F 30.12 in SSE 2.0 mph 2.0 mph 79% 0.00 in
07:08 61.9 °F 55.3 °F 30.12 in SE 2.0 mph 2.0 mph 79% 0.00 in
07:13 61.5 °F 55.3 °F 30.12 in SE 2.0 mph 2.0 mph 80% 0.00 in
07:18 61.2 °F 55.3 °F 30.13 in SSE 2.0 mph 2.0 mph 81% 0.00 in
07:23 61.1 °F 55.2 °F 30.13 in SSE 2.0 mph 3.0 mph 81% 0.00 in
07:28 61.2 °F 55.3 °F 30.13 in South 3.0 mph 4.0 mph 81% 0.00 in
07:33 61.2 °F 55.3 °F 30.13 in SE 1.0 mph 2.0 mph 81% 0.00 in
07:38 61.1 °F 55.6 °F 30.13 in SE 2.0 mph 3.0 mph 82% 0.00 in
07:43 61.2 °F 55.3 °F 30.14 in SSE 2.0 mph 3.0 mph 81% 0.00 in
07:48 60.9 °F 55.4 °F 30.14 in SSE 1.0 mph 3.0 mph 82% 0.00 in
07:53 60.7 °F 55.5 °F 30.14 in SE 2.0 mph 4.0 mph 83% 0.00 in
07:58 61.2 °F 55.7 °F 30.14 in SSE 2.0 mph 3.0 mph 82% 0.00 in
08:03 61.4 °F 55.5 °F 30.14 in SSE 1.0 mph 5.0 mph 81% 0.00 in
08:08 61.4 °F 55.5 °F 30.14 in SSE 2.0 mph 4.0 mph 81% 0.00 in
08:13 61.5 °F 55.6 °F 30.14 in SSE 1.0 mph 2.0 mph 81% 0.00 in
08:18 61.8 °F 55.9 °F 30.15 in SE 1.0 mph 2.0 mph 81% 0.00 in
08:23 62.2 °F 56.0 °F 30.15 in SE 1.0 mph 2.0 mph 80% 0.00 in
08:28 62.7 °F 56.1 °F 30.15 in Calm   1.0 mph 79% 0.00 in
08:33 63.4 °F 56.4 °F 30.15 in Calm     78% 0.00 in
08:38 64.3 °F 57.0 °F 30.16 in Calm     77% 0.00 in
08:43 64.7 °F 57.0 °F 30.16 in Calm     76% 0.00 in
08:49 64.6 °F 56.9 °F 30.16 in Calm     76% 0.00 in
08:54 64.9 °F 57.5 °F 30.16 in Calm     77% 0.00 in
08:59 65.4 °F 57.7 °F 30.16 in Calm     76% 0.00 in
09:04 66.1 °F 58.0 °F 30.17 in Calm     75% 0.00 in
09:09 66.3 °F 58.9 °F 30.17 in Calm     77% 0.00 in
09:14 66.0 °F 58.6 °F 30.17 in ESE 1.0 mph 1.0 mph 77% 0.00 in
09:19 65.9 °F 58.5 °F 30.17 in Calm   1.0 mph 77% 0.00 in
09:24 65.8 °F 57.7 °F 30.17 in SSE 1.0 mph 1.0 mph 75% 0.00 in
09:29 65.7 °F 57.9 °F 30.18 in SSE 1.0 mph 1.0 mph 76% 0.00 in
09:34 65.4 °F 58.0 °F 30.18 in ESE 2.0 mph 2.0 mph 77% 0.00 in
09:39 65.2 °F 57.5 °F 30.18 in SE 1.0 mph 4.0 mph 76% 0.00 in
09:44 65.5 °F 58.1 °F 30.18 in SE 2.0 mph 3.0 mph 77% 0.00 in
09:49 66.0 °F 58.2 °F 30.18 in SE 3.0 mph 5.0 mph 76% 0.00 in
09:54 66.5 °F 58.3 °F 30.18 in SSE 2.0 mph 4.0 mph 75% 0.00 in
09:59 66.9 °F 58.3 °F 30.18 in SSE 4.0 mph 5.0 mph 74% 0.00 in
10:04 67.3 °F 59.1 °F 30.18 in SSE 3.0 mph 5.0 mph 75% 0.00 in
10:10 67.9 °F 59.3 °F 30.18 in SE 3.0 mph 5.0 mph 74% 0.00 in
10:15 68.4 °F 59.4 °F 30.18 in SSE 3.0 mph 4.0 mph 73% 0.00 in
10:20 68.5 °F 58.7 °F 30.19 in SSE 4.0 mph 5.0 mph 71% 0.00 in
10:25 68.5 °F 58.7 °F 30.19 in SSE 3.0 mph 7.0 mph 71% 0.00 in
10:30 68.8 °F 59.0 °F 30.19 in SE 3.0 mph 6.0 mph 71% 0.00 in
10:35 69.0 °F 58.8 °F 30.19 in SSE 4.0 mph 5.0 mph 70% 0.00 in
10:40 69.5 °F 59.7 °F 30.19 in SSE 5.0 mph 5.0 mph 71% 0.00 in
10:45 69.9 °F 59.3 °F 30.19 in SE 3.0 mph 6.0 mph 69% 0.00 in
10:50 70.1 °F 59.5 °F 30.19 in SSE 2.0 mph 5.0 mph 69% 0.00 in
10:55 70.5 °F 59.8 °F 30.20 in WSW 4.0 mph 4.0 mph 69% 0.00 in
11:00 71.0 °F 60.3 °F 30.20 in South 2.0 mph 4.0 mph 69% 0.00 in
11:05 71.4 °F 60.3 °F 30.20 in WSW 4.0 mph 5.0 mph 68% 0.00 in
11:10 71.3 °F 60.2 °F 30.20 in SSE 3.0 mph 4.0 mph 68% 0.00 in
11:15 71.5 °F 60.4 °F 30.20 in West 3.0 mph 5.0 mph 68% 0.00 in
11:20 71.9 °F 60.4 °F 30.20 in SW 3.0 mph 4.0 mph 67% 0.00 in
11:25 72.3 °F 61.2 °F 30.20 in SW 4.0 mph 4.0 mph 68% 0.00 in
11:30 72.9 °F 61.7 °F 30.20 in SW 2.0 mph 4.0 mph 68% 0.00 in
11:35 73.3 °F 61.7 °F 30.20 in SSE 6.0 mph 6.0 mph 67% 0.00 in
11:36 73.3 °F 61.7 °F 30.20 in SSE 4.0 mph 6.0 mph 67% 0.00 in
11:41 73.4 °F 61.8 °F 30.20 in South 5.0 mph 5.0 mph 67% 0.00 in
11:46 73.8 °F 61.3 °F 30.20 in South 2.0 mph 6.0 mph 65% 0.00 in
11:51 74.2 °F 62.1 °F 30.20 in WSW 2.0 mph 3.0 mph 66% 0.00 in
11:56 74.2 °F 62.1 °F 30.19 in West 2.0 mph 4.0 mph 66% 0.00 in
12:01 74.3 °F 61.8 °F 30.19 in ESE 3.0 mph 5.0 mph 65% 0.00 in
12:06 74.6 °F 63.3 °F 30.19 in South 3.0 mph 4.0 mph 68% 0.00 in
12:11 75.1 °F 63.0 °F 30.19 in SSW 2.0 mph 3.0 mph 66% 0.00 in
12:16 75.4 °F 61.9 °F 30.19 in South 2.0 mph 5.0 mph 63% 0.00 in
12:21 75.8 °F 63.2 °F 30.19 in ESE 2.0 mph 4.0 mph 65% 0.00 in
12:26 75.8 °F 62.3 °F 30.18 in SSE 4.0 mph 7.0 mph 63% 0.00 in
12:31 75.7 °F 63.5 °F 30.18 in SSE 3.0 mph 4.0 mph 66% 0.00 in
12:36 75.9 °F 63.3 °F 30.18 in WSW 4.0 mph 7.0 mph 65% 0.00 in
12:41 76.0 °F 63.0 °F 30.18 in SSE 5.0 mph 6.0 mph 64% 0.00 in
12:46 76.1 °F 61.7 °F 30.18 in WSW 3.0 mph 6.0 mph 61% 0.00 in
12:51 76.1 °F 63.0 °F 30.18 in East 4.0 mph 4.0 mph 64% 0.00 in
12:56 76.5 °F 61.6 °F 30.17 in SSW 2.0 mph 5.0 mph 60% 0.00 in
13:01 76.6 °F 61.7 °F 30.17 in NE 2.0 mph 8.0 mph 60% 0.00 in
13:06 76.5 °F 63.0 °F 30.17 in SE 5.0 mph 8.0 mph 63% 0.00 in
13:12 76.5 °F 61.6 °F 30.17 in SE 5.0 mph 6.0 mph 60% 0.00 in
13:17 76.5 °F 59.2 °F 30.17 in SSE 5.0 mph 7.0 mph 55% 0.00 in
13:22 77.2 °F 59.8 °F 30.17 in SE 5.0 mph 6.0 mph 55% 0.00 in
13:27 77.3 °F 60.9 °F 30.16 in ESE 3.0 mph 4.0 mph 57% 0.00 in
13:32 77.2 °F 60.3 °F 30.16 in SE 5.0 mph 5.0 mph 56% 0.00 in
13:37 76.7 °F 59.3 °F 30.16 in ESE 5.0 mph 9.0 mph 55% 0.00 in
13:42 76.5 °F 59.7 °F 30.15 in ESE 3.0 mph 5.0 mph 56% 0.00 in
13:47 77.0 °F 60.1 °F 30.15 in South 6.0 mph 9.0 mph 56% 0.00 in
13:52 77.1 °F 60.2 °F 30.15 in SSE 2.0 mph 6.0 mph 56% 0.00 in
13:57 77.4 °F 60.0 °F 30.15 in ESE 3.0 mph 8.0 mph 55% 0.00 in
14:02 77.9 °F 60.5 °F 30.14 in ESE 5.0 mph 7.0 mph 55% 0.00 in
14:07 77.5 °F 60.1 °F 30.14 in ESE 8.0 mph 8.0 mph 55% 0.00 in
14:12 77.5 °F 61.1 °F 30.14 in SE 6.0 mph 11.0 mph 57% 0.00 in
14:17 77.0 °F 58.6 °F 30.13 in SE 7.0 mph 11.0 mph 53% 0.00 in
14:22 77.2 °F 59.3 °F 30.13 in SE 5.0 mph 8.0 mph 54% 0.00 in
14:27 77.4 °F 57.9 °F 30.13 in ESE 10.0 mph 13.0 mph 51% 0.00 in
14:32 77.2 °F 57.7 °F 30.13 in ESE 8.0 mph 14.0 mph 51% 0.00 in
14:37 77.6 °F 57.0 °F 30.13 in SE 4.0 mph 10.0 mph 49% 0.00 in
14:42 78.0 °F 56.2 °F 30.13 in ESE 8.0 mph 9.0 mph 47% 0.00 in
14:47 77.7 °F 58.7 °F 30.12 in ESE 6.0 mph 9.0 mph 52% 0.00 in
14:52 77.6 °F 56.4 °F 30.12 in ESE 11.0 mph 12.0 mph 48% 0.00 in
14:57 77.7 °F 58.2 °F 30.12 in SSW 7.0 mph 9.0 mph 51% 0.00 in
15:02 77.8 °F 58.8 °F 30.12 in SE 7.0 mph 9.0 mph 52% 0.00 in
15:07 77.9 °F 56.7 °F 30.11 in SE 9.0 mph 12.0 mph 48% 0.00 in
15:12 78.6 °F 56.7 °F 30.11 in SE 7.0 mph 11.0 mph 47% 0.00 in
15:17 78.8 °F 58.0 °F 30.11 in SE 6.0 mph 11.0 mph 49% 0.00 in
15:22 78.5 °F 55.4 °F 30.11 in SE 5.0 mph 9.0 mph 45% 0.00 in
15:27 78.7 °F 58.0 °F 30.10 in South 8.0 mph 8.0 mph 49% 0.00 in
15:32 78.8 °F 58.0 °F 30.10 in SE 7.0 mph 11.0 mph 49% 0.00 in
15:38 79.1 °F 54.1 °F 30.10 in SSW 3.0 mph 6.0 mph 42% 0.00 in
15:43 78.8 °F 51.1 °F 30.10 in SSE 7.0 mph 11.0 mph 38% 0.00 in
15:48 78.9 °F 54.5 °F 30.10 in SE 9.0 mph 13.0 mph 43% 0.00 in
15:53 79.1 °F 56.6 °F 30.09 in South 7.0 mph 10.0 mph 46% 0.00 in
15:58 78.9 °F 56.4 °F 30.10 in SE 6.0 mph 12.0 mph 46% 0.00 in
16:03 78.9 °F 54.5 °F 30.09 in SSE 6.0 mph 6.0 mph 43% 0.00 in
16:08 79.3 °F 57.3 °F 30.09 in SSW 4.0 mph 11.0 mph 47% 0.00 in
16:13 79.5 °F 55.1 °F 30.09 in SSE 7.0 mph 8.0 mph 43% 0.00 in
16:18 79.2 °F 54.8 °F 30.09 in SE 3.0 mph 10.0 mph 43% 0.00 in
16:23 78.9 °F 56.4 °F 30.09 in SSE 5.0 mph 8.0 mph 46% 0.00 in
16:28 78.6 °F 54.9 °F 30.09 in SSW 5.0 mph 10.0 mph 44% 0.00 in
16:34 78.2 °F 51.9 °F 30.09 in South 5.0 mph 8.0 mph 40% 0.00 in
16:39 78.3 °F 53.3 °F 30.09 in South 2.0 mph 6.0 mph 42% 0.00 in
16:44 78.5 °F 54.2 °F 30.09 in South 6.0 mph 9.0 mph 43% 0.00 in
16:49 79.0 °F 54.6 °F 30.08 in SW 6.0 mph 12.0 mph 43% 0.00 in
16:54 79.5 °F 54.4 °F 30.09 in SSE 7.0 mph 11.0 mph 42% 0.00 in
16:59 79.7 °F 55.9 °F 30.08 in South 5.0 mph 11.0 mph 44% 0.00 in
17:04 80.1 °F 54.3 °F 30.08 in SSE 4.0 mph 8.0 mph 41% 0.00 in
17:09 80.4 °F 54.6 °F 30.08 in South 5.0 mph 5.0 mph 41% 0.00 in
17:14 80.7 °F 53.5 °F 30.08 in South 4.0 mph 10.0 mph 39% 0.00 in
17:19 80.0 °F 54.9 °F 30.08 in SSE 6.0 mph 10.0 mph 42% 0.00 in
17:24 79.2 °F 55.4 °F 30.08 in SSE 5.0 mph 7.0 mph 44% 0.00 in
17:29 78.8 °F 54.4 °F 30.07 in SW 3.0 mph 6.0 mph 43% 0.00 in
17:34 79.0 °F 52.6 °F 30.07 in SSE 4.0 mph 9.0 mph 40% 0.00 in
17:39 79.1 °F 52.7 °F 30.07 in SE 4.0 mph 9.0 mph 40% 0.00 in
17:44 79.5 °F 53.8 °F 30.07 in SSW 3.0 mph 8.0 mph 41% 0.00 in
17:49 79.8 °F 54.7 °F 30.07 in SE 7.0 mph 9.0 mph 42% 0.00 in
17:54 79.6 °F 55.2 °F 30.07 in SE 7.0 mph 7.0 mph 43% 0.00 in
17:59 79.4 °F 54.3 °F 30.07 in SSE 3.0 mph 9.0 mph 42% 0.00 in
18:04 78.9 °F 53.9 °F 30.07 in SE 4.0 mph 9.0 mph 42% 0.00 in
18:09 78.4 °F 55.3 °F 30.07 in SSE 8.0 mph 9.0 mph 45% 0.00 in
18:14 77.8 °F 54.2 °F 30.07 in South 3.0 mph 13.0 mph 44% 0.00 in
18:19 77.7 °F 54.7 °F 30.07 in SSE 6.0 mph 8.0 mph 45% 0.00 in
18:24 77.4 °F 54.4 °F 30.07 in SSE 6.0 mph 8.0 mph 45% 0.00 in
18:29 77.2 °F 54.2 °F 30.07 in SSE 6.0 mph 8.0 mph 45% 0.00 in
18:34 76.9 °F 53.3 °F 30.07 in SE 8.0 mph 8.0 mph 44% 0.00 in
18:39 76.9 °F 54.0 °F 30.07 in SSE 5.0 mph 9.0 mph 45% 0.00 in
18:44 76.5 °F 54.8 °F 30.06 in South 5.0 mph 5.0 mph 47% 0.00 in
18:49 76.2 °F 55.7 °F 30.06 in SE 3.0 mph 6.0 mph 49% 0.00 in
18:54 76.1 °F 53.8 °F 30.06 in SSE 5.0 mph 9.0 mph 46% 0.00 in
18:59 76.0 °F 54.3 °F 30.06 in SSE 3.0 mph 6.0 mph 47% 0.00 in
19:04 75.5 °F 55.0 °F 30.06 in SSE 3.0 mph 3.0 mph 49% 0.00 in
19:09 75.3 °F 54.3 °F 30.06 in SSE 2.0 mph 4.0 mph 48% 0.00 in
19:15 75.4 °F 54.4 °F 30.06 in SE 3.0 mph 4.0 mph 48% 0.00 in
19:20 75.8 °F 53.6 °F 30.06 in SE 3.0 mph 3.0 mph 46% 0.00 in
19:25 76.0 °F 54.3 °F 30.06 in SE 4.0 mph 4.0 mph 47% 0.00 in
19:30 76.0 °F 54.3 °F 30.06 in SE 3.0 mph 4.0 mph 47% 0.00 in
19:35 75.9 °F 54.2 °F 30.06 in SE 2.0 mph 4.0 mph 47% 0.00 in
19:40 75.9 °F 53.7 °F 30.06 in ESE 3.0 mph 4.0 mph 46% 0.00 in
19:45 75.7 °F 54.1 °F 30.06 in SE 2.0 mph 3.0 mph 47% 0.00 in
19:50 75.2 °F 53.6 °F 30.07 in SE 2.0 mph 3.0 mph 47% 0.00 in
19:55 75.1 °F 53.5 °F 30.07 in ESE 2.0 mph 3.0 mph 47% 0.00 in
20:00 74.9 °F 53.3 °F 30.06 in ESE 3.0 mph 4.0 mph 47% 0.00 in
20:05 74.4 °F 53.5 °F 30.06 in ESE 2.0 mph 3.0 mph 48% 0.00 in
20:10 73.9 °F 53.6 °F 30.06 in ESE 3.0 mph 4.0 mph 49% 0.00 in
20:15 73.8 °F 52.9 °F 30.06 in ESE 2.0 mph 3.0 mph 48% 0.00 in
20:20 73.7 °F 52.8 °F 30.06 in SE 2.0 mph 3.0 mph 48% 0.00 in
20:25 73.4 °F 53.1 °F 30.07 in ESE 2.0 mph 3.0 mph 49% 0.00 in
20:30 73.0 °F 52.7 °F 30.06 in ESE 2.0 mph 3.0 mph 49% 0.00 in
20:35 72.4 °F 52.7 °F 30.07 in ESE 3.0 mph 3.0 mph 50% 0.00 in
20:40 72.4 °F 52.2 °F 30.06 in SE 4.0 mph 4.0 mph 49% 0.00 in
20:46 72.5 °F 51.7 °F 30.07 in SE 3.0 mph 5.0 mph 48% 0.00 in
20:51 72.6 °F 51.8 °F 30.07 in ESE 4.0 mph 4.0 mph 48% 0.00 in
20:56 72.4 °F 51.6 °F 30.07 in SE 3.0 mph 4.0 mph 48% 0.00 in
21:01 72.4 °F 51.0 °F 30.07 in ESE 4.0 mph 4.0 mph 47% 0.00 in
21:06 72.4 °F 51.0 °F 30.07 in SE 3.0 mph 4.0 mph 47% 0.00 in
21:11 72.1 °F 51.3 °F 30.07 in ESE 4.0 mph 4.0 mph 48% 0.00 in
21:16 71.9 °F 51.2 °F 30.07 in ESE 3.0 mph 4.0 mph 48% 0.00 in
21:21 71.6 °F 50.9 °F 30.07 in ESE 3.0 mph 4.0 mph 48% 0.00 in
21:26 71.5 °F 50.8 °F 30.07 in ESE 3.0 mph 4.0 mph 48% 0.00 in
21:31 71.4 °F 50.7 °F 30.07 in ESE 3.0 mph 4.0 mph 48% 0.00 in
21:36 71.0 °F 50.9 °F 30.07 in ESE 3.0 mph 4.0 mph 49% 0.00 in
21:41 70.7 °F 50.6 °F 30.07 in ESE 3.0 mph 4.0 mph 49% 0.00 in
21:46 70.7 °F 50.6 °F 30.07 in ESE 3.0 mph 4.0 mph 49% 0.00 in
21:51 70.5 °F 50.4 °F 30.07 in ESE 3.0 mph 3.0 mph 49% 0.00 in
21:56 70.6 °F 50.5 °F 30.07 in SE 2.0 mph 5.0 mph 49% 0.00 in
22:01 70.7 °F 50.6 °F 30.07 in SE 4.0 mph 4.0 mph 49% 0.00 in
22:06 70.7 °F 50.6 °F 30.07 in SE 3.0 mph 4.0 mph 49% 0.00 in
22:11 70.4 °F 51.4 °F 30.08 in ESE 3.0 mph 5.0 mph 51% 0.00 in
22:16 70.1 °F 51.2 °F 30.08 in SE 3.0 mph 5.0 mph 51% 0.00 in
22:21 69.7 °F 51.3 °F 30.08 in SE 2.0 mph 5.0 mph 52% 0.00 in
22:26 68.8 °F 51.0 °F 30.08 in SSE 2.0 mph 3.0 mph 53% 0.00 in
22:31 68.5 °F 51.2 °F 30.08 in SE 3.0 mph 4.0 mph 54% 0.00 in
22:36 68.3 °F 51.5 °F 30.08 in SE 1.0 mph 2.0 mph 55% 0.00 in
22:41 67.9 °F 51.6 °F 30.08 in South 1.0 mph 3.0 mph 56% 0.00 in
22:46 68.0 °F 50.8 °F 30.08 in South 2.0 mph 3.0 mph 54% 0.00 in
22:51 68.1 °F 50.8 °F 30.08 in SSW 2.0 mph 2.0 mph 54% 0.00 in
22:56 67.9 °F 51.2 °F 30.08 in SSW 1.0 mph 3.0 mph 55% 0.00 in
23:01 67.8 °F 51.1 °F 30.08 in SE 4.0 mph 4.0 mph 55% 0.00 in
23:06 67.8 °F 51.1 °F 30.08 in South 3.0 mph 3.0 mph 55% 0.00 in
23:11 67.9 °F 51.2 °F 30.08 in South 2.0 mph 4.0 mph 55% 0.00 in
23:16 67.7 °F 51.5 °F 30.08 in SSE 3.0 mph 4.0 mph 56% 0.00 in
23:21 66.9 °F 51.7 °F 30.08 in SE 1.0 mph 2.0 mph 58% 0.00 in
23:26 66.2 °F 51.5 °F 30.09 in SSE 2.0 mph 2.0 mph 59% 0.00 in
23:31 66.0 °F 51.3 °F 30.09 in SE 2.0 mph 3.0 mph 59% 0.00 in
23:36 65.7 °F 51.5 °F 30.08 in SSE 2.0 mph 2.0 mph 60% 0.00 in
23:41 65.4 °F 51.2 °F 30.09 in SE 3.0 mph 3.0 mph 60% 0.00 in
23:46 65.7 °F 51.5 °F 30.08 in SE 2.0 mph 3.0 mph 60% 0.00 in
23:51 66.1 °F 50.9 °F 30.08 in SSE 4.0 mph 4.0 mph 58% 0.00 in
23:56 66.4 °F 51.2 °F 30.08 in SE 3.0 mph 3.0 mph 58% 0.00 in
Compliments of Weather Underground